Time;durP1;ratioP1;P1;durP2;ratioP2;P2;SDS_P1;SDS_P2;PMS_P1;PMS_P2;Temp;Humidity;BMP_temperature;BMP_pressure;BME280_temperature;BME280_humidity;BME280_pressure;Samples;Min_cycle;Max_cycle;Signal;HPM_P1;HPM_P2
2021/01/20 00:01:30;;;;;;;7.05;1.00;;;20.00;23.90;;;;;;4990516;28;20050;-71
2021/01/20 00:03:56;;;;;;;8.38;1.05;;;19.90;24.00;;;;;;4988022;28;20428;-70
2021/01/20 00:06:23;;;;;;;5.13;1.10;;;19.90;24.00;;;;;;4992830;28;20034;-70
2021/01/20 00:08:49;;;;;;;8.75;1.10;;;19.90;24.70;;;;;;4970834;28;20061;-70
2021/01/20 00:11:16;;;;;;;6.50;1.02;;;20.00;23.80;;;;;;4984953;28;20039;-71
2021/01/20 00:13:43;;;;;;;5.00;1.08;;;19.90;24.40;;;;;;4983386;28;20042;-69
2021/01/20 00:16:09;;;;;;;7.80;0.80;;;19.80;24.40;;;;;;4991584;28;20117;-70
2021/01/20 00:18:35;;;;;;;9.88;0.88;;;19.80;23.60;;;;;;4986748;28;20092;-71
2021/01/20 00:21:02;;;;;;;2.95;0.90;;;19.80;24.00;;;;;;4993672;28;20034;-70
2021/01/20 00:23:28;;;;;;;3.60;0.88;;;19.70;23.60;;;;;;4993161;28;20030;-71
2021/01/20 00:25:55;;;;;;;10.27;1.42;;;19.70;23.80;;;;;;4990638;28;20027;-71
2021/01/20 00:28:21;;;;;;;15.65;1.02;;;19.60;24.00;;;;;;4985837;28;20522;-70
2021/01/20 00:30:48;;;;;;;8.18;2.17;;;19.60;23.60;;;;;;4984265;28;20041;-72
2021/01/20 00:33:14;;;;;;;11.95;1.27;;;19.60;24.00;;;;;;4983201;28;20041;-71
2021/01/20 00:35:41;;;;;;;4.38;0.88;;;19.60;24.10;;;;;;4985723;28;20326;-71
2021/01/20 00:38:07;;;;;;;4.57;1.05;;;19.60;24.30;;;;;;4987132;28;20109;-72
2021/01/20 00:40:33;;;;;;;6.78;0.73;;;19.40;24.30;;;;;;4985710;28;20447;-71
2021/01/20 00:43:00;;;;;;;6.93;0.75;;;19.40;24.90;;;;;;4994022;28;20425;-71
2021/01/20 00:45:26;;;;;;;5.72;0.70;;;19.30;24.60;;;;;;4991375;28;20399;-71
2021/01/20 00:47:53;;;;;;;6.10;0.95;;;19.30;25.00;;;;;;4994248;28;20058;-71
2021/01/20 00:50:19;;;;;;;6.07;0.80;;;19.20;25.20;;;;;;4987776;28;20092;-71
2021/01/20 00:52:46;;;;;;;5.43;0.80;;;19.10;25.10;;;;;;4984497;28;20029;-71
2021/01/20 00:55:14;;;;;;;2.95;0.85;;;19.10;25.40;;;;;;4986239;28;20026;-71
2021/01/20 00:57:41;;;;;;;5.55;0.93;;;19.00;25.40;;;;;;4992257;28;20022;-71
2021/01/20 01:00:09;;;;;;;8.25;1.08;;;18.90;25.60;;;;;;4988748;28;20042;-71
2021/01/20 01:02:36;;;;;;;4.15;1.45;;;18.80;25.50;;;;;;4991457;28;20026;-71
2021/01/20 01:05:04;;;;;;;8.15;1.35;;;18.80;26.00;;;;;;4987681;28;20026;-70
2021/01/20 01:07:30;;;;;;;4.82;1.42;;;18.60;26.50;;;;;;4988031;28;20403;-70
2021/01/20 01:09:57;;;;;;;6.65;1.20;;;18.50;27.10;;;;;;4997204;28;20030;-70
2021/01/20 01:12:23;;;;;;;9.88;1.50;;;18.70;26.80;;;;;;4987248;28;20030;-71
2021/01/20 01:14:49;;;;;;;8.57;1.17;;;18.60;27.30;;;;;;4988156;28;20026;-72
2021/01/20 01:17:16;;;;;;;2.53;1.05;;;18.50;27.90;;;;;;4989332;28;20041;-70
2021/01/20 01:19:42;;;;;;;5.40;1.30;;;18.60;27.40;;;;;;4987483;28;20100;-70
2021/01/20 01:22:09;;;;;;;7.97;1.00;;;18.50;27.60;;;;;;4988155;28;20022;-71
2021/01/20 01:24:35;;;;;;;8.15;1.48;;;18.30;27.80;;;;;;4986376;28;20046;-70
2021/01/20 01:27:01;;;;;;;7.40;1.40;;;18.10;28.40;;;;;;4989874;28;20049;-71
2021/01/20 01:29:28;;;;;;;4.15;1.40;;;18.00;27.90;;;;;;4984694;28;20033;-70
2021/01/20 01:31:54;;;;;;;6.03;1.25;;;17.80;28.00;;;;;;4986011;28;20412;-71
2021/01/20 01:34:20;;;;;;;2.60;0.77;;;17.80;28.00;;;;;;4990105;28;20022;-70
2021/01/20 01:36:47;;;;;;;11.00;1.30;;;17.80;27.20;;;;;;4988752;28;20138;-71
2021/01/20 01:39:14;;;;;;;2.88;1.20;;;17.70;27.20;;;;;;4986327;28;20148;-71
2021/01/20 01:41:42;;;;;;;6.95;1.63;;;17.70;27.40;;;;;;4983450;28;20054;-73
2021/01/20 01:44:08;;;;;;;3.65;1.00;;;17.60;27.40;;;;;;4985649;28;20037;-71
2021/01/20 01:46:35;;;;;;;4.45;1.30;;;17.70;27.40;;;;;;4984681;28;20542;-71
2021/01/20 01:49:02;;;;;;;13.23;2.55;;;17.70;27.50;;;;;;4980101;28;20581;-70
2021/01/20 01:51:29;;;;;;;9.32;1.83;;;17.70;27.40;;;;;;4988319;28;20151;-72
2021/01/20 01:53:56;;;;;;;8.60;1.63;;;17.60;27.50;;;;;;4993774;28;20026;-70
2021/01/20 01:56:25;;;;;;;4.50;0.90;;;17.60;27.60;;;;;;4990735;28;20092;-71
2021/01/20 01:58:52;;;;;;;12.73;1.73;;;17.50;27.90;;;;;;4993739;28;20037;-71
2021/01/20 02:01:20;;;;;;;13.25;1.70;;;17.50;28.00;;;;;;4990493;28;20022;-71
2021/01/20 02:03:50;;;;;;;7.63;1.42;;;17.50;28.50;;;;;;4990740;28;20037;-71
2021/01/20 02:06:17;;;;;;;7.28;1.65;;;17.40;28.70;;;;;;4989906;28;20033;-71
2021/01/20 02:08:49;;;;;;;7.90;1.67;;;17.40;29.00;;;;;;4990099;28;20034;-71
2021/01/20 02:11:52;;;;;;;6.45;3.00;;;17.30;28.80;;;;;;4991302;28;20092;-71
2021/01/20 02:14:27;;;;;;;13.38;1.30;;;17.40;28.90;;;;;;4994043;28;20077;-71
2021/01/20 02:17:22;;;;;;;3.33;1.00;;;17.40;28.50;;;;;;4988270;28;20135;-72
2021/01/20 02:19:55;;;;;;;2.92;1.05;;;17.40;28.30;;;;;;4993997;28;20034;-72
2021/01/20 02:22:52;;;;;;;9.55;1.98;;;17.40;28.40;;;;;;4992008;28;20117;-71
2021/01/20 02:25:25;;;;;;;6.03;1.27;;;17.30;27.80;;;;;;4982715;28;20054;-72
2021/01/20 02:28:13;;;;;;;8.52;1.23;;;17.30;27.90;;;;;;4985955;28;20126;-71
2021/01/20 02:30:43;;;;;;;8.63;1.88;;;17.40;28.00;;;;;;4994819;28;20034;-71
2021/01/20 02:33:11;;;;;;;6.28;1.50;;;17.40;27.90;;;;;;4988641;28;20027;-73
2021/01/20 02:35:44;;;;;;;8.73;1.95;;;17.30;28.20;;;;;;4991389;28;20388;-72
2021/01/20 02:38:12;;;;;;;13.20;1.50;;;17.20;27.80;;;;;;4989912;28;20050;-72
2021/01/20 02:40:42;;;;;;;7.90;1.70;;;17.20;27.90;;;;;;4993191;28;20161;-72
2021/01/20 02:43:08;;;;;;;9.38;1.38;;;17.20;28.20;;;;;;4989934;28;20049;-72
2021/01/20 02:45:35;;;;;;;13.20;3.53;;;17.00;28.00;;;;;;4991848;28;20109;-71
2021/01/20 02:48:04;;;;;;;12.23;1.50;;;17.00;28.40;;;;;;4992453;28;20035;-72
2021/01/20 02:50:31;;;;;;;2.50;1.30;;;16.90;28.40;;;;;;4990671;28;20109;-72
2021/01/20 02:53:09;;;;;;;4.90;1.55;;;16.50;28.70;;;;;;4987566;28;20038;-71
2021/01/20 02:55:36;;;;;;;3.80;1.10;;;16.40;28.80;;;;;;4984881;28;20045;-71
2021/01/20 02:58:09;;;;;;;6.05;1.60;;;16.00;29.90;;;;;;4987146;28;20023;-71
2021/01/20 03:00:39;;;;;;;11.73;2.28;;;15.80;29.00;;;;;;4984133;28;20034;-71
2021/01/20 03:03:09;;;;;;;5.97;1.20;;;15.60;28.70;;;;;;4993871;28;20022;-70
2021/01/20 03:05:37;;;;;;;2.60;1.40;;;15.40;29.70;;;;;;4986851;28;20113;-70
2021/01/20 03:08:04;;;;;;;7.55;1.02;;;15.30;30.00;;;;;;4989308;28;20423;-72
2021/01/20 03:10:31;;;;;;;6.18;1.23;;;15.10;30.00;;;;;;4991831;28;20030;-72
2021/01/20 03:12:57;;;;;;;4.43;1.30;;;14.90;30.60;;;;;;4992045;28;20031;-72
2021/01/20 03:15:29;;;;;;;9.98;1.90;;;14.80;29.80;;;;;;4991068;28;20031;-72
2021/01/20 03:17:55;;;;;;;6.23;1.83;;;14.90;30.70;;;;;;4989009;28;20030;-71
2021/01/20 03:20:21;;;;;;;3.65;2.08;;;14.90;30.50;;;;;;4989306;28;20264;-71
2021/01/20 03:22:48;;;;;;;5.30;1.75;;;14.80;30.00;;;;;;4986337;28;20030;-72
2021/01/20 03:25:14;;;;;;;3.70;1.80;;;14.90;31.70;;;;;;4993790;28;20116;-73
2021/01/20 03:27:41;;;;;;;6.78;1.45;;;14.90;31.30;;;;;;4988639;28;20353;-72
2021/01/20 03:30:08;;;;;;;2.53;1.40;;;14.70;31.00;;;;;;4989856;28;20480;-71
2021/01/20 03:32:34;;;;;;;2.97;1.70;;;14.40;30.60;;;;;;4994126;28;20042;-73
2021/01/20 03:35:01;;;;;;;3.08;1.48;;;14.20;30.90;;;;;;4992051;28;20030;-71
2021/01/20 03:37:27;;;;;;;3.22;1.48;;;14.00;31.80;;;;;;4987285;28;20046;-71
2021/01/20 03:39:54;;;;;;;3.05;1.65;;;13.90;32.10;;;;;;4990829;28;20037;-72
2021/01/20 03:42:20;;;;;;;3.33;1.67;;;13.80;31.70;;;;;;4986695;28;20034;-73
2021/01/20 03:44:46;;;;;;;13.25;2.47;;;14.00;32.20;;;;;;4985529;28;20397;-73
2021/01/20 03:47:13;;;;;;;2.60;1.30;;;13.80;32.20;;;;;;4982622;28;20034;-73
2021/01/20 03:49:39;;;;;;;6.55;1.52;;;13.80;32.30;;;;;;4989428;28;20022;-72
2021/01/20 03:52:06;;;;;;;2.78;1.48;;;13.90;32.10;;;;;;4993949;28;20076;-72
2021/01/20 03:54:32;;;;;;;8.10;1.90;;;13.60;32.60;;;;;;4988865;28;20043;-73
2021/01/20 03:56:59;;;;;;;8.15;1.35;;;13.50;31.70;;;;;;4988600;28;20030;-71
2021/01/20 03:59:25;;;;;;;5.63;1.83;;;13.40;32.90;;;;;;4988896;28;20427;-71
2021/01/20 04:01:51;;;;;;;2.70;1.80;;;13.30;31.70;;;;;;4988245;28;20018;-71
2021/01/20 04:04:18;;;;;;;11.65;2.47;;;13.20;34.00;;;;;;4985150;28;20049;-71
2021/01/20 04:06:46;;;;;;;3.38;2.28;;;13.20;32.50;;;;;;4991408;28;20030;-70
2021/01/20 04:09:12;;;;;;;10.80;1.80;;;13.30;32.70;;;;;;4988816;28;20031;-69
2021/01/20 04:11:39;;;;;;;7.43;2.40;;;13.50;34.00;;;;;;4990699;28;20030;-70
2021/01/20 04:14:05;;;;;;;6.90;2.17;;;13.60;33.60;;;;;;4986194;28;20042;-71
2021/01/20 04:16:32;;;;;;;4.55;1.77;;;13.50;33.40;;;;;;4987779;28;20530;-71
2021/01/20 04:18:58;;;;;;;4.63;1.90;;;13.40;34.10;;;;;;4989439;28;20022;-70
2021/01/20 04:21:25;;;;;;;3.90;2.40;;;13.30;33.00;;;;;;4985510;28;20367;-70
2021/01/20 04:23:51;;;;;;;5.03;1.80;;;13.00;33.70;;;;;;4993456;28;20098;-70
2021/01/20 04:26:18;;;;;;;5.13;1.83;;;12.90;32.70;;;;;;4991416;28;20023;-70
2021/01/20 04:28:44;;;;;;;11.35;2.00;;;12.80;33.70;;;;;;4994602;28;20154;-71
2021/01/20 04:31:11;;;;;;;6.97;2.45;;;12.80;33.40;;;;;;4989694;28;20062;-71
2021/01/20 04:33:37;;;;;;;9.32;1.90;;;12.80;33.60;;;;;;4983634;28;20098;-71
2021/01/20 04:36:04;;;;;;;9.65;2.10;;;12.70;34.00;;;;;;4980403;28;20088;-70
2021/01/20 04:38:30;;;;;;;3.83;2.20;;;12.80;34.20;;;;;;4983764;28;20030;-70
2021/01/20 04:40:57;;;;;;;6.13;2.42;;;12.80;34.40;;;;;;4991631;28;20101;-70
2021/01/20 04:43:24;;;;;;;6.65;2.10;;;12.70;33.80;;;;;;4980564;28;20037;-71
2021/01/20 04:45:52;;;;;;;11.40;3.38;;;12.90;35.10;;;;;;4983522;28;20041;-72
2021/01/20 04:48:19;;;;;;;5.28;2.10;;;13.00;34.20;;;;;;4993423;28;20034;-72
2021/01/20 04:50:47;;;;;;;10.27;2.10;;;13.00;34.30;;;;;;4984750;28;20522;-71
2021/01/20 04:53:15;;;;;;;3.58;2.10;;;13.10;34.50;;;;;;4990764;28;20081;-70
2021/01/20 04:55:44;;;;;;;4.57;2.22;;;13.00;33.80;;;;;;4986827;28;20037;-70
2021/01/20 04:58:11;;;;;;;3.85;2.13;;;13.10;34.10;;;;;;4986575;28;20027;-70
2021/01/20 05:00:41;;;;;;;4.53;1.90;;;13.20;33.90;;;;;;4991308;28;20030;-70
2021/01/20 05:03:09;;;;;;;6.90;2.15;;;13.20;34.20;;;;;;4984248;28;20117;-70
2021/01/20 05:05:36;;;;;;;7.82;2.20;;;13.20;33.90;;;;;;4993218;28;20026;-71
2021/01/20 05:08:06;;;;;;;8.88;2.58;;;13.10;34.20;;;;;;4984073;28;20084;-71
2021/01/20 05:10:33;;;;;;;10.45;2.88;;;13.10;34.00;;;;;;4986445;28;20038;-70
2021/01/20 05:13:28;;;;;;;10.25;2.95;;;13.00;33.90;;;;;;4985892;28;20709;-70
2021/01/20 05:15:56;;;;;;;12.75;2.05;;;12.90;33.70;;;;;;4990491;28;20037;-70
2021/01/20 05:18:22;;;;;;;8.93;3.60;;;12.80;33.70;;;;;;4990770;28;20030;-70
2021/01/20 05:20:49;;;;;;;4.68;2.20;;;12.80;34.00;;;;;;4987037;28;20014;-71
2021/01/20 05:23:16;;;;;;;7.45;2.60;;;12.80;34.10;;;;;;4989327;28;20033;-70
2021/01/20 05:25:45;;;;;;;12.70;2.80;;;12.90;34.60;;;;;;4985748;28;20049;-70
2021/01/20 05:28:24;;;;;;;3.50;1.90;;;12.90;34.70;;;;;;4987956;28;20346;-70
2021/01/20 05:30:58;;;;;;;8.15;2.55;;;13.00;34.70;;;;;;4991410;28;20038;-70
2021/01/20 05:33:29;;;;;;;14.98;2.42;;;12.90;34.50;;;;;;4986549;28;20049;-70
2021/01/20 05:36:08;;;;;;;5.63;1.83;;;12.70;34.00;;;;;;4987417;28;20054;-70
2021/01/20 05:38:46;;;;;;;15.30;2.92;;;12.50;34.30;;;;;;4988701;28;20037;-70
2021/01/20 05:41:24;;;;;;;13.98;2.13;;;12.40;34.10;;;;;;4990041;28;20027;-70
2021/01/20 05:43:52;;;;;;;5.78;2.13;;;12.50;35.40;;;;;;4982330;28;20023;-70
2021/01/20 05:46:38;;;;;;;4.18;2.00;;;12.60;34.70;;;;;;4985374;28;20038;-70
2021/01/20 05:49:06;;;;;;;2.80;1.83;;;12.30;34.70;;;;;;4986994;28;20030;-71
2021/01/20 05:51:43;;;;;;;6.97;2.28;;;12.10;35.10;;;;;;4989724;28;20037;-70
2021/01/20 05:54:13;;;;;;;3.47;1.75;;;12.20;35.70;;;;;;4987125;28;20030;-72
2021/01/20 05:56:39;;;;;;;4.68;2.38;;;12.10;35.30;;;;;;4987049;28;20054;-70
2021/01/20 05:59:09;;;;;;;12.57;2.40;;;12.00;35.10;;;;;;4991401;28;20504;-70
2021/01/20 06:01:37;;;;;;;8.07;2.30;;;12.40;35.60;;;;;;4989880;28;20019;-70
2021/01/20 06:04:07;;;;;;;7.47;2.13;;;12.50;35.50;;;;;;4984745;28;20337;-70
2021/01/20 06:06:35;;;;;;;4.07;2.20;;;12.50;34.90;;;;;;4985514;28;20039;-71
2021/01/20 06:09:02;;;;;;;11.00;2.05;;;12.50;35.20;;;;;;4983153;28;20068;-71
2021/01/20 06:11:28;;;;;;;11.57;2.30;;;12.40;34.80;;;;;;4982302;28;20669;-70
2021/01/20 06:13:55;;;;;;;11.25;1.88;;;12.30;34.70;;;;;;4989333;28;20402;-70
2021/01/20 06:16:25;;;;;;;12.13;1.98;;;12.20;34.20;;;;;;4984206;28;20034;-70
2021/01/20 06:19:00;;;;;;;4.35;1.95;;;12.40;34.40;;;;;;4985586;28;20058;-70
2021/01/20 06:21:29;;;;;;;14.88;2.45;;;12.40;35.10;;;;;;4988377;28;20054;-70
2021/01/20 06:24:10;;;;;;;15.27;2.88;;;12.70;34.90;;;;;;4987696;28;20078;-70
2021/01/20 06:26:48;;;;;;;9.40;1.60;;;12.70;34.80;;;;;;4983488;28;20445;-70
2021/01/20 06:29:21;;;;;;;12.93;2.20;;;12.40;34.40;;;;;;4983664;28;20045;-70
2021/01/20 06:31:48;;;;;;;;;;;12.10;34.40;;;;;;4985033;28;20052;-71
2021/01/20 06:34:15;;;;;;;5.82;1.75;;;12.30;35.60;;;;;;4984741;28;19945;-70
2021/01/20 06:36:41;;;;;;;9.38;2.13;;;12.50;35.00;;;;;;4992244;28;20042;-70
2021/01/20 06:39:26;;;;;;;12.40;1.70;;;12.60;35.30;;;;;;4985799;28;20054;-70
2021/01/20 06:41:53;;;;;;;9.32;2.90;;;12.50;34.60;;;;;;4987791;28;20356;-70
2021/01/20 06:44:19;;;;;;;13.95;1.95;;;12.60;35.00;;;;;;4987617;28;20050;-69
2021/01/20 06:47:00;;;;;;;8.27;2.15;;;12.50;34.80;;;;;;4989574;28;20042;-70
2021/01/20 06:49:31;;;;;;;12.60;2.22;;;12.60;35.00;;;;;;4992792;28;20096;-71
2021/01/20 06:52:10;;;;;;;6.18;2.13;;;12.70;35.10;;;;;;4988482;28;20027;-71
2021/01/20 06:54:40;;;;;;;15.55;2.20;;;12.70;35.00;;;;;;4983673;28;20038;-70
2021/01/20 06:57:29;;;;;;;13.10;1.98;;;12.60;35.00;;;;;;4992424;28;20027;-70
2021/01/20 07:00:08;;;;;;;6.60;1.70;;;12.50;35.00;;;;;;4987023;28;20150;-71
2021/01/20 07:02:35;;;;;;;13.40;2.30;;;12.20;34.50;;;;;;4988015;28;20027;-70
2021/01/20 07:05:03;;;;;;;11.55;1.88;;;12.20;34.80;;;;;;4985084;28;20031;-70
2021/01/20 07:07:56;;;;;;;7.18;1.98;;;12.50;34.70;;;;;;4986620;28;20033;-70
2021/01/20 07:10:25;;;;;;;12.88;3.50;;;12.60;35.00;;;;;;4985634;28;20399;-70
2021/01/20 07:13:18;;;;;;;12.77;2.00;;;12.40;34.60;;;;;;4992613;28;20102;-71
2021/01/20 07:15:47;;;;;;;8.75;3.03;;;12.40;34.90;;;;;;4988248;28;20049;-70
2021/01/20 07:18:15;;;;;;;12.30;1.80;;;12.40;35.30;;;;;;4991991;28;20081;-70
2021/01/20 07:20:42;;;;;;;12.55;2.20;;;12.30;35.50;;;;;;4994048;28;20026;-70
2021/01/20 07:23:10;;;;;;;12.95;2.30;;;12.30;35.20;;;;;;4994409;28;20098;-70
2021/01/20 07:25:37;;;;;;;13.77;1.90;;;12.30;35.20;;;;;;4989142;28;20030;-70
2021/01/20 07:28:04;;;;;;;11.82;2.42;;;12.30;35.70;;;;;;4985279;28;20035;-70
2021/01/20 07:30:31;;;;;;;17.63;2.47;;;12.30;35.70;;;;;;4991221;28;20038;-70
2021/01/20 07:32:58;;;;;;;8.75;2.05;;;12.30;35.40;;;;;;4987609;28;20034;-70
2021/01/20 07:35:29;;;;;;;10.75;2.35;;;12.20;35.90;;;;;;4993770;28;20053;-70
2021/01/20 07:38:06;;;;;;;14.77;1.90;;;12.30;35.50;;;;;;4985123;28;20050;-70
2021/01/20 07:40:34;;;;;;;22.13;2.88;;;12.20;35.60;;;;;;4992887;28;20464;-70
2021/01/20 07:43:01;;;;;;;11.13;3.10;;;12.30;35.80;;;;;;4989886;28;20022;-70
2021/01/20 07:45:36;;;;;;;9.90;2.17;;;12.20;35.70;;;;;;4995421;28;20117;-70
2021/01/20 07:48:04;;;;;;;11.77;3.05;;;12.10;35.80;;;;;;4996421;28;20038;-70
2021/01/20 07:50:47;;;;;;;12.07;3.50;;;12.10;35.50;;;;;;4996772;28;20030;-70
2021/01/20 07:53:18;;;;;;;12.52;2.65;;;12.10;35.80;;;;;;4992820;28;20029;-70
2021/01/20 07:55:46;;;;;;;7.15;2.78;;;12.10;37.00;;;;;;4993697;28;20029;-71
2021/01/20 07:58:14;;;;;;;13.85;3.25;;;12.10;36.50;;;;;;4987313;28;20018;-70
2021/01/20 08:00:47;;;;;;;14.80;2.55;;;12.00;36.50;;;;;;4987682;28;20048;-70
2021/01/20 08:03:15;;;;;;;14.10;4.85;;;11.90;36.50;;;;;;4983483;28;20057;-70
2021/01/20 08:05:43;;;;;;;11.35;2.58;;;11.80;36.20;;;;;;4991523;28;20045;-70
2021/01/20 08:08:14;;;;;;;5.43;2.20;;;11.60;36.80;;;;;;4990237;28;20034;-70
2021/01/20 08:10:42;;;;;;;19.75;5.53;;;11.60;36.20;;;;;;4990620;28;20022;-70
2021/01/20 08:13:14;;;;;;;11.80;2.65;;;11.40;35.90;;;;;;4981998;28;20041;-71
2021/01/20 08:15:43;;;;;;;7.63;1.88;;;11.40;36.70;;;;;;4985825;28;20033;-70
2021/01/20 08:18:12;;;;;;;9.63;2.00;;;11.70;37.20;;;;;;4994446;28;20019;-70
2021/01/20 08:23:53;;;;;;;9.25;2.28;;;11.50;35.90;;;;;;4985909;28;20033;-70
2021/01/20 08:26:30;;;;;;;5.18;1.92;;;11.50;36.50;;;;;;4988513;28;20081;-70
2021/01/20 08:29:04;;;;;;;15.98;4.47;;;11.40;36.00;;;;;;4991724;28;20396;-71
2021/01/20 08:31:30;;;;;;;7.55;1.85;;;11.30;36.10;;;;;;4993870;28;20460;-71
2021/01/20 08:34:23;;;;;;;5.55;1.55;;;11.20;36.50;;;;;;4994891;28;20109;-70
2021/01/20 08:37:08;;;;;;;10.75;2.40;;;11.40;36.60;;;;;;4979820;28;20034;-71
2021/01/20 08:39:36;;;;;;;21.08;2.17;;;11.30;36.50;;;;;;4989785;28;20046;-70
2021/01/20 08:42:27;;;;;;;16.05;2.30;;;11.30;36.60;;;;;;4992347;28;20027;-70
2021/01/20 08:45:07;;;;;;;7.05;2.30;;;11.20;36.50;;;;;;4995385;28;20023;-70
2021/01/20 08:48:04;;;;;;;12.48;2.00;;;11.40;36.50;;;;;;4993533;28;20101;-71
2021/01/20 08:50:30;;;;;;;6.63;2.25;;;11.30;36.30;;;;;;4990312;28;20129;-70
2021/01/20 08:53:02;;;;;;;8.50;2.00;;;11.30;36.90;;;;;;4992173;28;20448;-70
2021/01/20 08:55:33;;;;;;;5.75;1.83;;;11.40;36.80;;;;;;4993281;28;20026;-71
2021/01/20 08:58:22;;;;;;;10.45;1.77;;;11.50;36.70;;;;;;4993835;28;20034;-72
2021/01/20 09:00:53;;;;;;;13.07;2.10;;;11.50;36.90;;;;;;4998559;28;20448;-72
2021/01/20 09:03:38;;;;;;;5.72;2.60;;;11.50;36.50;;;;;;4997424;28;20030;-71
2021/01/20 09:06:14;;;;;;;12.52;3.13;;;11.40;36.50;;;;;;4996029;28;20022;-70
2021/01/20 09:08:40;;;;;;;17.65;2.25;;;11.40;36.50;;;;;;4994014;28;20124;-70
2021/01/20 09:11:07;;;;;;;20.35;2.25;;;11.40;36.80;;;;;;4991967;28;20037;-70
2021/01/20 09:13:34;;;;;;;9.70;2.00;;;11.30;36.10;;;;;;4992909;28;20042;-70
2021/01/20 09:16:00;;;;;;;7.72;2.20;;;11.40;36.10;;;;;;4990093;28;20126;-70
2021/01/20 09:18:27;;;;;;;8.38;2.03;;;11.50;36.40;;;;;;4993678;28;20033;-70
2021/01/20 09:20:54;;;;;;;11.60;2.60;;;11.30;36.30;;;;;;4993334;28;20408;-70
2021/01/20 09:23:21;;;;;;;17.77;2.42;;;11.30;36.30;;;;;;4987925;28;20164;-71
2021/01/20 09:25:48;;;;;;;17.20;2.28;;;11.30;36.40;;;;;;4990703;28;20478;-70
2021/01/20 09:28:15;;;;;;;16.27;2.25;;;11.30;36.50;;;;;;4992754;28;20026;-70
2021/01/20 09:30:41;;;;;;;11.10;2.58;;;11.30;36.80;;;;;;4993583;28;20406;-71
2021/01/20 09:33:08;;;;;;;12.93;2.22;;;11.30;36.40;;;;;;4992133;28;20041;-70
2021/01/20 09:35:34;;;;;;;8.32;2.38;;;11.30;36.50;;;;;;4992341;28;20040;-70
2021/01/20 09:38:02;;;;;;;11.82;2.10;;;11.20;36.50;;;;;;4992956;28;20500;-70
2021/01/20 09:40:28;;;;;;;19.05;3.70;;;11.10;36.90;;;;;;4990307;28;20142;-70
2021/01/20 09:42:55;;;;;;;23.52;3.60;;;11.20;36.90;;;;;;4981973;28;20022;-70
2021/01/20 09:45:27;;;;;;;17.08;2.28;;;11.30;36.50;;;;;;4989510;28;20018;-70
2021/01/20 09:47:56;;;;;;;14.55;2.33;;;11.30;36.20;;;;;;4993597;28;20364;-70
2021/01/20 09:50:23;;;;;;;19.48;2.45;;;11.20;36.20;;;;;;4992879;28;20026;-70
2021/01/20 09:52:52;;;;;;;8.95;1.98;;;11.20;36.10;;;;;;4993022;28;20391;-71
2021/01/20 09:55:20;;;;;;;12.93;2.42;;;11.20;36.00;;;;;;4993753;28;20392;-70
2021/01/20 09:57:46;;;;;;;13.00;2.40;;;11.10;35.80;;;;;;4993439;28;20023;-70
2021/01/20 10:00:13;;;;;;;16.60;4.00;;;10.80;36.50;;;;;;4981146;28;20034;-70
2021/01/20 10:02:41;;;;;;;10.90;2.05;;;11.00;36.60;;;;;;4991788;28;20068;-70
2021/01/20 10:05:09;;;;;;;7.88;2.97;;;11.20;36.60;;;;;;4989688;28;20423;-70
2021/01/20 10:07:36;;;;;;;12.43;1.88;;;11.20;36.40;;;;;;4991945;28;20511;-70
2021/01/20 10:10:04;;;;;;;13.10;1.98;;;11.10;36.50;;;;;;4993760;28;20113;-70
2021/01/20 10:12:31;;;;;;;11.93;2.50;;;10.90;36.20;;;;;;4997580;28;20025;-70
2021/01/20 10:14:57;;;;;;;6.60;3.08;;;10.60;36.40;;;;;;4997310;28;20476;-70
2021/01/20 10:17:24;;;;;;;21.40;4.00;;;10.50;37.20;;;;;;4993786;28;20034;-70
2021/01/20 10:19:50;;;;;;;9.63;2.08;;;10.80;37.30;;;;;;4997420;28;20023;-70
2021/01/20 10:22:16;;;;;;;10.88;2.60;;;10.80;37.00;;;;;;4996696;28;20018;-70
2021/01/20 10:24:43;;;;;;;13.70;2.88;;;10.80;36.50;;;;;;4994884;28;20029;-70
2021/01/20 10:27:09;;;;;;;15.68;2.78;;;10.90;36.00;;;;;;4986079;28;20030;-70
2021/01/20 10:29:35;;;;;;;3.47;1.83;;;10.70;35.90;;;;;;4992103;28;20042;-70
2021/01/20 10:32:03;;;;;;;10.90;2.70;;;10.60;35.90;;;;;;4997070;28;20034;-70
2021/01/20 10:34:29;;;;;;;10.55;2.55;;;10.50;36.20;;;;;;4997212;28;20081;-70
2021/01/20 10:36:56;;;;;;;9.85;2.40;;;10.80;36.40;;;;;;4995981;28;20026;-70
2021/01/20 10:39:23;;;;;;;8.38;2.30;;;10.90;35.90;;;;;;4990637;28;20037;-71
2021/01/20 10:41:51;;;;;;;13.23;2.22;;;10.90;36.20;;;;;;4995544;28;20059;-70
2021/01/20 10:44:18;;;;;;;11.07;2.20;;;10.70;36.30;;;;;;4994802;28;20026;-70
2021/01/20 10:46:44;;;;;;;12.45;2.22;;;10.70;36.70;;;;;;4994894;28;20129;-70
2021/01/20 10:49:11;;;;;;;14.80;2.70;;;10.80;36.20;;;;;;4996888;28;20026;-70
2021/01/20 10:51:37;;;;;;;7.55;2.17;;;10.50;36.40;;;;;;4996471;28;20030;-71
2021/01/20 10:54:06;;;;;;;12.65;2.10;;;10.50;37.10;;;;;;4995700;28;20030;-70
2021/01/20 10:56:32;;;;;;;9.35;2.25;;;10.60;37.20;;;;;;4996196;28;20118;-70
2021/01/20 10:58:59;;;;;;;7.82;2.38;;;10.70;36.90;;;;;;4994760;28;20026;-70
2021/01/20 11:01:26;;;;;;;11.32;2.47;;;10.80;36.20;;;;;;4996766;28;20045;-70
2021/01/20 11:03:52;;;;;;;12.82;2.28;;;10.70;36.10;;;;;;4994318;28;20141;-70
2021/01/20 11:06:18;;;;;;;12.45;2.00;;;10.40;36.10;;;;;;4995952;28;20045;-70
2021/01/20 11:08:45;;;;;;;8.50;2.15;;;10.30;36.50;;;;;;4996998;28;20034;-70
2021/01/20 11:11:12;;;;;;;17.67;3.75;;;10.10;37.40;;;;;;4995915;28;20356;-71
2021/01/20 11:13:39;;;;;;;25.30;2.67;;;10.20;37.70;;;;;;4996440;28;20025;-70
2021/01/20 11:16:06;;;;;;;10.52;3.03;;;10.40;37.90;;;;;;4990314;28;20022;-70
2021/01/20 11:18:34;;;;;;;5.43;2.58;;;10.40;37.50;;;;;;4994848;28;20023;-71
2021/01/20 11:21:01;;;;;;;16.42;2.83;;;10.20;36.90;;;;;;4995659;28;20081;-70
2021/01/20 11:23:35;;;;;;;10.88;2.13;;;10.00;37.20;;;;;;4994195;28;20018;-70
2021/01/20 11:26:07;;;;;;;9.68;2.45;;;9.80;37.60;;;;;;4995239;28;20061;-70
2021/01/20 11:28:34;;;;;;;8.65;2.15;;;9.70;37.80;;;;;;4993738;28;20026;-70
2021/01/20 11:31:00;;;;;;;11.40;2.50;;;9.70;37.70;;;;;;4994041;28;20034;-70
2021/01/20 11:33:27;;;;;;;9.15;2.70;;;9.70;38.50;;;;;;4995500;28;20026;-70
2021/01/20 11:35:53;;;;;;;12.10;2.00;;;9.50;39.90;;;;;;4995124;28;20084;-70
2021/01/20 11:38:20;;;;;;;10.40;2.08;;;9.40;40.20;;;;;;4994358;28;20033;-70
2021/01/20 11:40:46;;;;;;;13.57;1.90;;;9.40;38.20;;;;;;4990856;28;20105;-70
2021/01/20 11:43:13;;;;;;;16.10;2.35;;;9.50;38.70;;;;;;4994650;28;20085;-69
2021/01/20 11:45:39;;;;;;;10.23;2.00;;;9.50;39.10;;;;;;4991152;28;20035;-70
2021/01/20 11:48:07;;;;;;;15.13;2.08;;;9.40;39.10;;;;;;4995714;28;20022;-70
2021/01/20 11:50:34;;;;;;;8.88;2.00;;;9.30;39.10;;;;;;4996249;28;20054;-70
2021/01/20 11:53:01;;;;;;;6.38;1.70;;;9.30;39.40;;;;;;4996663;28;20397;-70
2021/01/20 11:55:28;;;;;;;16.85;2.33;;;9.20;39.70;;;;;;4996913;28;20337;-70
2021/01/20 11:57:54;;;;;;;13.18;4.13;;;9.20;39.20;;;;;;4997137;28;20038;-70
2021/01/20 12:00:21;;;;;;;9.20;1.90;;;9.20;39.30;;;;;;4994932;28;20034;-70
2021/01/20 12:02:48;;;;;;;7.82;1.95;;;9.20;39.00;;;;;;4992441;28;20022;-70
2021/01/20 12:05:17;;;;;;;9.90;2.08;;;9.20;39.30;;;;;;4993393;28;20049;-70
2021/01/20 12:07:44;;;;;;;22.02;2.30;;;9.20;39.00;;;;;;4992372;28;20467;-70
2021/01/20 12:10:13;;;;;;;16.73;2.75;;;9.30;38.30;;;;;;4994469;28;20428;-70
2021/01/20 12:12:39;;;;;;;7.68;1.88;;;9.40;38.10;;;;;;4992771;28;20034;-70
2021/01/20 12:15:07;;;;;;;11.95;2.53;;;9.30;39.00;;;;;;4993673;28;20468;-70
2021/01/20 12:17:34;;;;;;;7.85;2.70;;;9.20;39.50;;;;;;4995274;28;20379;-70
2021/01/20 12:20:03;;;;;;;6.88;2.60;;;9.20;39.70;;;;;;4995215;28;20452;-69
2021/01/20 12:22:29;;;;;;;11.48;2.75;;;9.10;39.30;;;;;;4992255;28;20099;-69
2021/01/20 12:24:56;;;;;;;10.25;1.90;;;9.10;39.40;;;;;;4993544;28;20023;-69
2021/01/20 12:27:22;;;;;;;9.55;2.03;;;9.10;39.00;;;;;;4993100;28;20104;-69
2021/01/20 12:29:48;;;;;;;11.25;2.47;;;9.10;39.20;;;;;;4995277;28;20092;-69
2021/01/20 12:32:15;;;;;;;13.32;3.45;;;9.10;38.00;;;;;;4992541;28;20053;-69
2021/01/20 12:34:41;;;;;;;14.20;2.28;;;9.20;37.90;;;;;;4995936;28;20364;-69
2021/01/20 12:37:08;;;;;;;11.57;2.53;;;9.10;38.10;;;;;;4993341;28;20030;-69
2021/01/20 12:39:35;;;;;;;9.77;2.80;;;9.10;39.50;;;;;;4994041;28;20045;-69
2021/01/20 12:42:01;;;;;;;9.93;2.35;;;9.10;39.30;;;;;;4991163;28;20031;-69
2021/01/20 12:44:27;;;;;;;7.35;2.10;;;9.10;38.50;;;;;;4995457;28;20023;-69
2021/01/20 12:46:54;;;;;;;11.32;2.83;;;9.00;39.40;;;;;;4994324;28;20049;-69
2021/01/20 12:49:20;;;;;;;10.18;2.17;;;9.00;39.10;;;;;;4992770;28;20124;-69
2021/01/20 12:51:47;;;;;;;14.80;2.63;;;9.30;38.80;;;;;;4994569;28;20058;-69
2021/01/20 12:54:13;;;;;;;20.40;2.70;;;9.40;38.20;;;;;;4995150;28;20467;-69
2021/01/20 12:56:40;;;;;;;15.85;2.35;;;9.50;38.40;;;;;;4994176;28;20349;-69